createdAt,value
2019-02-17T00:02:25.399Z,21.27
2019-02-17T00:05:44.159Z,25.40
2019-02-17T00:08:52.681Z,21.60
2019-02-17T00:12:01.406Z,22.97
2019-02-17T00:15:10.315Z,23.83
2019-02-17T00:18:18.937Z,20.13
2019-02-17T00:21:27.835Z,19.13
2019-02-17T00:24:36.515Z,19.97
2019-02-17T00:27:45.782Z,20.83
2019-02-17T00:30:54.516Z,22.33
2019-02-17T00:34:03.139Z,19.90
2019-02-17T00:37:11.207Z,22.53
2019-02-17T00:40:19.908Z,23.63
2019-02-17T00:43:38.774Z,22.87
2019-02-17T00:46:47.396Z,21.67
2019-02-17T00:49:56.100Z,23.23
2019-02-17T00:53:04.754Z,20.43
2019-02-17T00:56:13.363Z,23.03
2019-02-17T00:59:22.073Z,20.90
2019-02-17T01:02:30.674Z,22.50
2019-02-17T01:05:39.181Z,22.40
2019-02-17T01:08:58.134Z,21.17
2019-02-17T01:12:06.743Z,24.07
2019-02-17T01:15:15.560Z,20.17
2019-02-17T01:18:24.363Z,23.60
2019-02-17T01:21:33.131Z,21.77
2019-02-17T01:24:41.741Z,22.37
2019-02-17T01:27:50.341Z,25.17
2019-02-17T01:30:59.045Z,21.93
2019-02-17T01:34:11.697Z,24.27
2019-02-17T01:37:20.303Z,22.33
2019-02-17T01:40:29.019Z,21.23
2019-02-17T01:43:37.632Z,21.80
2019-02-17T01:46:46.253Z,24.20
2019-02-17T01:49:54.997Z,23.60
2019-02-17T01:53:03.588Z,21.37
2019-02-17T01:56:22.369Z,22.03
2019-02-17T01:59:31.114Z,20.97
2019-02-17T02:02:39.779Z,21.83
2019-02-17T02:05:48.403Z,21.33
2019-02-17T02:08:56.994Z,22.53
2019-02-17T02:12:05.981Z,23.33
2019-02-17T02:15:14.787Z,23.97
2019-02-17T02:18:23.340Z,22.27
2019-02-17T02:21:31.953Z,23.40
2019-02-17T02:24:40.444Z,23.70
2019-02-17T02:27:59.252Z,21.07
2019-02-17T02:31:07.998Z,23.57
2019-02-17T02:34:16.560Z,24.60
2019-02-17T02:37:25.173Z,23.90
2019-02-17T02:40:33.862Z,22.93
2019-02-17T02:43:42.458Z,21.67
2019-02-17T02:46:50.966Z,27.07
2019-02-17T02:50:12.351Z,22.73
2019-02-17T02:53:20.877Z,24.60
2019-02-17T02:56:29.493Z,26.27
2019-02-17T02:59:52.450Z,26.10
2019-02-17T03:02:58.753Z,26.90
2019-02-17T03:06:24.891Z,25.97
2019-02-17T03:09:33.595Z,25.47
2019-02-17T03:12:42.213Z,28.17
2019-02-17T03:15:50.799Z,26.03
2019-02-17T03:18:59.949Z,28.53
2019-02-17T03:22:08.584Z,25.17
2019-02-17T03:25:17.185Z,27.17
2019-02-17T03:28:24.204Z,25.13
2019-02-17T03:31:32.881Z,24.43
2019-02-17T03:34:41.755Z,24.07
2019-02-17T03:38:00.572Z,25.13
2019-02-17T03:41:09.283Z,27.77
2019-02-17T03:44:19.215Z,25.13
2019-02-17T03:47:27.836Z,25.93
2019-02-17T03:50:36.478Z,25.77
2019-02-17T03:53:45.001Z,29.53
2019-02-17T03:57:03.913Z,25.87
2019-02-17T04:00:16.984Z,28.00
2019-02-17T04:03:23.032Z,27.87
2019-02-17T04:06:31.637Z,30.70
2019-02-17T04:09:40.319Z,25.27
2019-02-17T04:12:48.925Z,26.20
2019-02-17T04:15:57.428Z,27.17
2019-02-17T04:19:06.041Z,26.37
2019-02-17T04:22:24.849Z,24.17
2019-02-17T04:25:33.476Z,27.67
2019-02-17T04:28:42.001Z,28.23
2019-02-17T04:31:50.716Z,26.33
2019-02-17T04:34:59.348Z,26.50
2019-02-17T04:38:07.983Z,27.67
2019-02-17T04:41:18.194Z,28.03
2019-02-17T04:44:37.012Z,29.43
2019-02-17T04:47:45.645Z,29.83
2019-02-17T04:50:54.309Z,26.87
2019-02-17T04:54:02.924Z,31.37
2019-02-17T04:57:11.498Z,33.13
2019-02-17T05:00:20.213Z,31.97
2019-02-17T05:03:28.827Z,35.70
2019-02-17T05:06:47.550Z,35.73
2019-02-17T05:09:56.203Z,34.17
2019-02-17T05:13:04.735Z,34.40
2019-02-17T05:16:13.240Z,30.73
2019-02-17T05:19:21.865Z,26.83
2019-02-17T05:22:40.647Z,27.83
2019-02-17T05:25:49.234Z,27.23
2019-02-17T05:28:57.857Z,25.17
2019-02-17T05:32:06.466Z,25.10
2019-02-17T05:35:15.071Z,27.33
2019-02-17T05:38:24.788Z,26.87
2019-02-17T05:41:33.482Z,26.00
2019-02-17T05:44:41.993Z,26.63
2019-02-17T05:47:50.596Z,26.93
2019-02-17T05:50:59.465Z,29.90
2019-02-17T05:54:07.956Z,26.73
2019-02-17T05:57:16.547Z,26.63
2019-02-17T06:00:28.954Z,25.60
2019-02-17T06:03:37.548Z,29.33
2019-02-17T06:06:46.020Z,28.13
2019-02-17T06:10:06.211Z,30.30
2019-02-17T06:13:14.848Z,30.30
2019-02-17T06:16:23.487Z,32.23
2019-02-17T06:19:30.711Z,32.90
2019-02-17T06:22:39.180Z,29.87
2019-02-17T06:25:47.770Z,28.17
2019-02-17T06:29:06.533Z,31.30
2019-02-17T06:32:15.113Z,31.60
2019-02-17T06:35:23.626Z,31.27
2019-02-17T06:38:32.212Z,31.33
2019-02-17T06:41:40.878Z,32.63
2019-02-17T06:44:49.388Z,38.53
2019-02-17T06:48:08.595Z,32.53
2019-02-17T06:51:17.292Z,32.83
2019-02-17T06:54:25.811Z,32.87
2019-02-17T06:57:38.443Z,31.07
2019-02-17T07:00:49.523Z,35.90
2019-02-17T07:03:58.116Z,32.10
2019-02-17T07:07:07.214Z,33.07
2019-02-17T07:10:15.851Z,33.97
2019-02-17T07:13:24.465Z,32.10
2019-02-17T07:16:33.051Z,30.93
2019-02-17T07:19:52.011Z,32.27
2019-02-17T07:23:00.479Z,32.97
2019-02-17T07:26:09.091Z,32.70
2019-02-17T07:29:17.738Z,31.73
2019-02-17T07:32:26.234Z,34.03
2019-02-17T07:35:34.856Z,35.93
2019-02-17T07:38:53.722Z,31.53
2019-02-17T07:42:02.399Z,31.30
2019-02-17T07:45:10.980Z,35.40
2019-02-17T07:48:19.572Z,34.07
2019-02-17T07:51:32.994Z,36.07
2019-02-17T07:54:41.542Z,33.73
2019-02-17T07:58:00.332Z,34.40
2019-02-17T08:01:08.999Z,37.83
2019-02-17T08:04:17.485Z,33.90
2019-02-17T08:07:26.080Z,31.93
2019-02-17T08:10:34.742Z,35.17
2019-02-17T08:13:43.337Z,35.60
2019-02-17T08:16:51.923Z,34.67
2019-02-17T08:20:12.783Z,34.23
2019-02-17T08:23:21.254Z,35.03
2019-02-17T08:26:29.891Z,37.97
2019-02-17T08:29:38.563Z,33.13
2019-02-17T08:32:47.181Z,37.57
2019-02-17T08:35:55.804Z,33.73
2019-02-17T08:39:05.582Z,34.03
2019-02-17T08:42:14.224Z,33.17
2019-02-17T08:45:22.812Z,31.37
2019-02-17T08:48:31.417Z,33.13
2019-02-17T08:51:40.042Z,35.27
2019-02-17T08:54:48.617Z,34.97
2019-02-17T08:57:57.373Z,32.83
2019-02-17T09:01:06.013Z,31.00
2019-02-17T09:04:24.819Z,31.80
2019-02-17T09:07:33.321Z,32.70
2019-02-17T09:10:41.926Z,31.53
2019-02-17T09:13:50.552Z,33.43
2019-02-17T09:16:59.042Z,31.63
2019-02-17T09:20:17.921Z,33.27
2019-02-17T09:23:26.458Z,37.97
2019-02-17T09:26:34.984Z,33.57
2019-02-17T09:29:43.608Z,33.00
2019-02-17T09:32:52.110Z,31.37
2019-02-17T09:36:10.740Z,32.87
2019-02-17T09:39:19.391Z,32.30
2019-02-17T09:42:27.952Z,33.17
2019-02-17T09:45:36.513Z,30.90
2019-02-17T09:48:45.121Z,29.73
2019-02-17T09:51:53.717Z,31.80
2019-02-17T09:55:12.491Z,30.23
2019-02-17T09:58:21.955Z,30.43
2019-02-17T10:01:42.665Z,31.63
2019-02-17T10:04:50.971Z,35.70
2019-02-17T10:07:59.882Z,34.70
2019-02-17T10:11:08.971Z,32.83
2019-02-17T10:14:17.893Z,31.97
2019-02-17T10:17:28.204Z,29.47
2019-02-17T10:20:36.811Z,34.93
2019-02-17T10:23:45.420Z,28.60
2019-02-17T10:26:54.331Z,31.73
2019-02-17T10:30:03.590Z,32.00
2019-02-17T10:33:12.973Z,29.13
2019-02-17T10:36:21.494Z,31.13
2019-02-17T10:39:31.650Z,30.73
2019-02-17T10:42:50.466Z,29.50
2019-02-17T10:45:59.042Z,27.77
2019-02-17T10:49:07.768Z,28.97
2019-02-17T10:52:16.393Z,29.97
2019-02-17T10:55:24.873Z,34.43
2019-02-17T10:58:33.399Z,29.07
2019-02-17T11:01:52.287Z,27.67
2019-02-17T11:05:00.840Z,30.03
2019-02-17T11:08:09.463Z,29.43
2019-02-17T11:11:18.027Z,32.03
2019-02-17T11:14:26.535Z,29.33
2019-02-17T11:17:45.148Z,31.90
2019-02-17T11:20:53.696Z,31.40
2019-02-17T11:24:02.225Z,33.60
2019-02-17T11:27:10.849Z,30.27
2019-02-17T11:30:19.612Z,30.20
2019-02-17T11:33:28.249Z,30.07
2019-02-17T11:36:36.860Z,29.27
2019-02-17T11:39:55.813Z,29.33
2019-02-17T11:43:04.447Z,32.53
2019-02-17T11:46:13.187Z,30.73
2019-02-17T11:49:21.909Z,29.07
2019-02-17T11:52:32.339Z,28.50
2019-02-17T11:55:40.482Z,32.27
2019-02-17T11:58:49.082Z,27.43
2019-02-17T12:02:27.090Z,27.27
2019-02-17T12:05:35.704Z,31.37
2019-02-17T12:08:48.883Z,26.60
2019-02-17T12:11:57.475Z,27.97
2019-02-17T12:15:06.790Z,30.83
2019-02-17T12:18:15.666Z,27.97
2019-02-17T12:21:52.031Z,25.60
2019-02-17T12:25:07.271Z,31.53
2019-02-17T12:28:23.819Z,29.07
2019-02-17T12:31:36.487Z,29.00
2019-02-17T12:34:55.285Z,24.03
2019-02-17T12:38:03.780Z,24.00
2019-02-17T12:41:12.443Z,25.03
2019-02-17T12:44:21.097Z,24.53
2019-02-17T12:47:29.713Z,28.87
2019-02-17T12:50:38.369Z,25.13
2019-02-17T12:53:47.883Z,27.23
2019-02-17T12:56:56.932Z,27.43
2019-02-17T13:00:07.014Z,28.37
2019-02-17T13:03:16.073Z,25.97
2019-02-17T13:06:26.562Z,26.23
2019-02-17T13:09:34.965Z,26.50
2019-02-17T13:12:43.590Z,28.60
2019-02-17T13:15:52.101Z,25.70
2019-02-17T13:19:00.685Z,25.30
2019-02-17T13:22:19.828Z,23.77
2019-02-17T13:25:38.797Z,24.37
2019-02-17T13:28:47.426Z,24.43
2019-02-17T13:31:56.084Z,25.53
2019-02-17T13:35:05.194Z,25.23
2019-02-17T13:38:13.751Z,27.90
2019-02-17T13:41:22.412Z,26.70
2019-02-17T13:44:30.985Z,27.73
2019-02-17T13:47:39.508Z,25.37
2019-02-17T13:50:58.222Z,23.13
2019-02-17T13:54:06.898Z,23.60
2019-02-17T13:57:15.453Z,25.30
2019-02-17T14:00:24.149Z,22.87
2019-02-17T14:03:32.655Z,25.57
2019-02-17T14:06:41.762Z,24.60
2019-02-17T14:09:50.355Z,24.57
2019-02-17T14:12:58.891Z,27.53
2019-02-17T14:16:07.534Z,26.13
2019-02-17T14:19:26.308Z,25.10
2019-02-17T14:22:34.930Z,25.77
2019-02-17T14:25:43.649Z,26.83
2019-02-17T14:28:52.311Z,26.53
2019-02-17T14:32:00.846Z,25.77
2019-02-17T14:35:09.696Z,27.00
2019-02-17T14:38:18.378Z,23.57
2019-02-17T14:41:27.132Z,24.63
2019-02-17T14:44:35.790Z,24.97
2019-02-17T14:47:45.636Z,23.87
2019-02-17T14:50:54.524Z,25.40
2019-02-17T14:54:03.348Z,25.47
2019-02-17T14:57:13.168Z,21.97
2019-02-17T15:00:21.721Z,25.17
2019-02-17T15:03:30.332Z,23.07
2019-02-17T15:06:44.129Z,22.17
2019-02-17T15:09:54.193Z,23.80
2019-02-17T15:13:02.832Z,23.50
2019-02-17T15:16:21.748Z,23.93
2019-02-17T15:19:30.491Z,27.73
2019-02-17T15:22:39.012Z,25.27
2019-02-17T15:25:47.611Z,23.33
2019-02-17T15:28:56.208Z,22.27
2019-02-17T15:32:04.775Z,24.80
2019-02-17T15:35:27.714Z,23.77
2019-02-17T15:38:43.451Z,24.83
2019-02-17T15:41:52.569Z,23.10
2019-02-17T15:45:01.188Z,23.70
2019-02-17T15:48:09.982Z,22.67
2019-02-17T15:51:18.672Z,24.37
2019-02-17T15:54:29.829Z,24.40
2019-02-17T15:57:38.862Z,25.93
2019-02-17T16:00:47.505Z,23.17
2019-02-17T16:03:56.108Z,25.10
2019-02-17T16:07:04.736Z,22.60
2019-02-17T16:10:13.466Z,21.57
2019-02-17T16:13:23.192Z,22.13
2019-02-17T16:16:42.228Z,21.20
2019-02-17T16:19:50.938Z,20.57
2019-02-17T16:22:59.456Z,20.90
2019-02-17T16:26:07.950Z,22.77
2019-02-17T16:29:15.056Z,22.83
2019-02-17T16:32:23.594Z,21.27
2019-02-17T16:35:42.305Z,22.83
2019-02-17T16:38:50.916Z,21.53
2019-02-17T16:41:59.570Z,23.03
2019-02-17T16:45:11.145Z,23.27
2019-02-17T16:48:19.768Z,26.27
2019-02-17T16:51:28.439Z,24.73
2019-02-17T16:54:54.811Z,24.20
2019-02-17T16:58:03.518Z,22.70
2019-02-17T17:01:12.202Z,24.30
2019-02-17T17:04:21.490Z,21.23
2019-02-17T17:07:28.552Z,24.60
2019-02-17T17:10:37.204Z,23.97
2019-02-17T17:13:45.854Z,21.53
2019-02-17T17:16:54.518Z,24.47
2019-02-17T17:20:03.149Z,26.80
2019-02-17T17:23:11.674Z,24.70
2019-02-17T17:26:20.185Z,29.33
2019-02-17T17:29:46.528Z,23.30
2019-02-17T17:32:56.664Z,24.00
2019-02-17T17:36:05.473Z,24.17
2019-02-17T17:39:14.055Z,24.93
2019-02-17T17:42:22.606Z,25.93
2019-02-17T17:45:31.276Z,25.00
2019-02-17T17:48:39.751Z,26.13
2019-02-17T17:52:01.389Z,25.60
2019-02-17T17:55:10.376Z,29.03
2019-02-17T17:58:18.890Z,29.30
2019-02-17T18:01:27.573Z,27.60
2019-02-17T18:04:36.159Z,27.70
2019-02-17T18:07:44.697Z,30.20
2019-02-17T18:10:53.343Z,31.07
2019-02-17T18:14:01.921Z,26.27
2019-02-17T18:17:24.753Z,27.80
2019-02-17T18:20:33.361Z,28.97
2019-02-17T18:23:42.245Z,28.93
2019-02-17T18:26:50.770Z,29.77
2019-02-17T18:30:00.355Z,27.43
2019-02-17T18:33:19.299Z,28.50
2019-02-17T18:36:28.059Z,30.10
2019-02-17T18:39:36.650Z,24.67
2019-02-17T18:42:47.052Z,26.73
2019-02-17T18:45:55.625Z,27.93
2019-02-17T18:49:04.234Z,32.73
2019-02-17T18:52:12.894Z,30.40
2019-02-17T18:55:22.016Z,32.07
2019-02-17T18:58:30.689Z,28.87
2019-02-17T19:01:39.935Z,28.40
2019-02-17T19:04:48.435Z,29.17
2019-02-17T19:07:56.953Z,31.13
2019-02-17T19:11:05.563Z,30.27
2019-02-17T19:14:24.311Z,27.40
2019-02-17T19:17:33.103Z,27.93
2019-02-17T19:20:41.837Z,29.47
2019-02-17T19:23:50.375Z,27.57
2019-02-17T19:26:58.982Z,24.07
2019-02-17T19:30:08.462Z,29.40
2019-02-17T19:33:16.972Z,29.77
2019-02-17T19:36:25.614Z,29.13
2019-02-17T19:39:34.320Z,26.60
2019-02-17T19:42:42.963Z,26.93
2019-02-17T19:45:51.443Z,25.30
2019-02-17T19:49:00.080Z,29.67
2019-02-17T19:52:18.867Z,30.60
2019-02-17T19:55:27.379Z,26.50
2019-02-17T19:58:36.001Z,25.77
2019-02-17T20:01:44.725Z,25.33
2019-02-17T20:05:06.956Z,26.20
2019-02-17T20:08:17.046Z,27.63
2019-02-17T20:11:25.664Z,29.57
2019-02-17T20:14:34.287Z,26.77
2019-02-17T20:17:43.037Z,26.10
2019-02-17T20:20:51.718Z,24.67
2019-02-17T20:24:00.330Z,27.07
2019-02-17T20:27:08.911Z,23.63
2019-02-17T20:30:27.854Z,26.90
2019-02-17T20:33:36.356Z,25.50
2019-02-17T20:36:44.872Z,24.73
2019-02-17T20:39:53.622Z,25.23
2019-02-17T20:43:02.213Z,25.93
2019-02-17T20:46:10.830Z,28.57
2019-02-17T20:49:29.724Z,25.63
2019-02-17T20:52:38.243Z,23.67
2019-02-17T20:55:46.752Z,24.17
2019-02-17T20:58:56.375Z,26.17
2019-02-17T21:02:15.347Z,26.17
2019-02-17T21:05:23.948Z,24.93
2019-02-17T21:08:32.567Z,25.30
2019-02-17T21:11:41.229Z,27.47
2019-02-17T21:14:49.828Z,26.33
2019-02-17T21:17:58.429Z,28.87
2019-02-17T21:21:07.101Z,28.93
2019-02-17T21:24:25.963Z,27.37
2019-02-17T21:27:34.465Z,26.37
2019-02-17T21:30:43.167Z,28.03
2019-02-17T21:33:51.756Z,27.37
2019-02-17T21:37:00.292Z,26.60
2019-02-17T21:40:11.538Z,26.33
2019-02-17T21:43:20.040Z,26.60
2019-02-17T21:46:28.676Z,25.47
2019-02-17T21:49:37.425Z,28.80
2019-02-17T21:52:45.901Z,27.23
2019-02-17T21:55:54.537Z,28.10
2019-02-17T21:59:13.310Z,26.57
2019-02-17T22:02:22.093Z,26.53
2019-02-17T22:05:30.705Z,28.93
2019-02-17T22:08:39.322Z,25.57
2019-02-17T22:11:48.005Z,27.70
2019-02-17T22:14:56.620Z,25.57
2019-02-17T22:18:05.200Z,25.87
2019-02-17T22:21:13.904Z,24.67
2019-02-17T22:24:32.614Z,29.50
2019-02-17T22:27:41.213Z,28.87
2019-02-17T22:30:49.959Z,25.53
2019-02-17T22:33:58.545Z,27.67
2019-02-17T22:37:07.133Z,27.17
2019-02-17T22:40:16.009Z,27.03
2019-02-17T22:43:24.605Z,26.60
2019-02-17T22:46:33.122Z,26.70
2019-02-17T22:49:52.065Z,29.30
2019-02-17T22:53:00.665Z,26.90
2019-02-17T22:56:09.317Z,25.27
2019-02-17T22:59:17.973Z,27.50
2019-02-17T23:02:26.863Z,27.60
2019-02-17T23:05:35.371Z,26.83
2019-02-17T23:08:43.944Z,26.67
2019-02-17T23:11:52.647Z,27.80
2019-02-17T23:15:11.522Z,26.47
2019-02-17T23:18:20.131Z,26.00
2019-02-17T23:21:28.948Z,28.53
2019-02-17T23:24:37.530Z,29.53
2019-02-17T23:27:46.330Z,27.20
2019-02-17T23:30:55.025Z,27.27
2019-02-17T23:34:03.608Z,26.00
2019-02-17T23:37:12.220Z,23.70
2019-02-17T23:40:20.867Z,25.93
2019-02-17T23:43:29.479Z,28.50
2019-02-17T23:46:48.408Z,28.17
2019-02-17T23:49:56.983Z,24.70
2019-02-17T23:53:05.614Z,25.43
2019-02-17T23:56:14.199Z,24.13
2019-02-17T23:59:22.895Z,28.53
